Time;durP1;ratioP1;P1;durP2;ratioP2;P2;SDS_P1;SDS_P2;PMS_P1;PMS_P2;Temp;Humidity;BMP_temperature;BMP_pressure;BME280_temperature;BME280_humidity;BME280_pressure;Samples;Min_cycle;Max_cycle;Signal;HPM_P1;HPM_P2
2022/02/16 00:02:04;;;;;;;5.40;0.97;;;3.70;99.90;;;;;;5033518;28;20455;-88
2022/02/16 00:04:31;;;;;;;0.50;0.50;;;;;;;;;;5033788;28;20455;-89
2022/02/16 00:06:58;;;;;;;0.40;0.30;;;;;;;;;;5032582;28;20457;-89
2022/02/16 00:09:25;;;;;;;0.70;0.50;;;;;;;;;;5033238;28;20487;-88
2022/02/16 00:11:52;;;;;;;1.63;0.83;;;;;;;;;;5033625;28;20797;-89
2022/02/16 00:14:19;;;;;;;0.83;0.67;;;;;;;;;;5033296;28;20502;-88
2022/02/16 00:16:47;;;;;;;3.63;1.73;;;;;;;;;;5033275;28;20463;-87
2022/02/16 00:19:15;;;;;;;0.70;0.47;;;3.70;99.90;;;;;;5033303;28;20469;-89
2022/02/16 00:21:42;;;;;;;3.40;2.70;;;;;;;;;;5031931;28;20456;-88
2022/02/16 00:24:09;;;;;;;0.87;0.70;;;;;;;;;;5033601;28;20458;-90
2022/02/16 00:26:36;;;;;;;5.60;0.93;;;;;;;;;;5033387;28;20450;-90
2022/02/16 00:29:03;;;;;;;0.70;0.67;;;;;;;;;;5032822;28;20939;-88
2022/02/16 00:31:31;;;;;;;2.33;0.57;;;;;;;;;;5033758;28;20434;-90
2022/02/16 00:33:58;;;;;;;0.87;0.60;;;;;;;;;;5033312;28;20522;-90
2022/02/16 00:36:26;;;;;;;2.73;0.70;;;3.90;99.90;;;;;;5032360;28;20843;-89
2022/02/16 00:38:53;;;;;;;1.33;0.77;;;;;;;;;;5033288;28;20456;-86
2022/02/16 00:41:20;;;;;;;1.40;0.57;;;;;;;;;;5033367;28;20456;-87
2022/02/16 00:43:47;;;;;;;0.87;0.40;;;;;;;;;;5032947;28;20459;-87
2022/02/16 00:46:14;;;;;;;1.90;0.93;;;;;;;;;;5031734;28;20461;-88
2022/02/16 00:48:42;;;;;;;2.33;0.70;;;;;;;;;;5034268;28;20799;-88
2022/02/16 00:51:09;;;;;;;2.30;1.23;;;;;;;;;;5032073;28;20491;-87
2022/02/16 00:53:37;;;;;;;2.30;0.40;;;4.00;99.90;;;;;;5032979;28;20982;-89
2022/02/16 00:56:04;;;;;;;0.40;0.40;;;;;;;;;;5032955;28;20472;-87
2022/02/16 00:58:32;;;;;;;1.50;1.40;;;;;;;;;;5032917;28;20457;-89
2022/02/16 01:00:59;;;;;;;1.97;0.87;;;;;;;;;;5033087;28;20451;-87
2022/02/16 01:03:26;;;;;;;1.10;0.90;;;;;;;;;;5032634;28;20513;-87
2022/02/16 01:05:53;;;;;;;5.00;1.37;;;;;;;;;;5031431;28;20446;-90
2022/02/16 01:08:20;;;;;;;0.50;0.50;;;;;;;;;;5032605;28;20817;-89
2022/02/16 01:10:49;;;;;;;1.27;0.70;;;4.10;99.90;;;;;;5032395;28;20504;-87
2022/02/16 01:13:16;;;;;;;4.90;1.03;;;;;;;;;;5032867;28;20449;-90
2022/02/16 01:15:43;;;;;;;0.90;0.63;;;;;;;;;;5033092;28;20474;-87
2022/02/16 01:18:10;;;;;;;2.20;1.17;;;;;;;;;;5032777;28;20941;-89
2022/02/16 01:20:38;;;;;;;1.07;0.53;;;;;;;;;;5031355;28;20943;-91
2022/02/16 01:23:05;;;;;;;0.60;0.40;;;;;;;;;;5032408;28;20800;-86
2022/02/16 01:25:32;;;;;;;0.40;0.40;;;;;;;;;;5032774;28;20458;-89
2022/02/16 01:28:00;;;;;;;3.87;0.70;;;4.30;99.90;;;;;;5032706;28;20448;-88
2022/02/16 01:30:27;;;;;;;2.40;0.40;;;;;;;;;;5032685;28;20519;-88
2022/02/16 01:32:54;;;;;;;0.40;0.40;;;;;;;;;;5032609;28;20450;-90
2022/02/16 01:35:22;;;;;;;4.63;0.70;;;;;;;;;;5031599;28;20450;-90
2022/02/16 01:37:49;;;;;;;0.37;0.27;;;;;;;;;;5032378;28;20444;-90
2022/02/16 01:40:16;;;;;;;1.17;0.60;;;;;;;;;;5032686;28;20455;-89
2022/02/16 01:42:43;;;;;;;0.57;0.50;;;;;;;;;;5032424;28;20454;-86
2022/02/16 01:45:12;;;;;;;0.63;0.40;;;4.30;99.90;;;;;;5032654;28;20448;-87
2022/02/16 01:47:39;;;;;;;3.43;0.70;;;;;;;;;;5032481;28;20796;-87
2022/02/16 01:50:08;;;;;;;2.10;1.07;;;4.50;99.90;;;;;;5031243;28;20490;-89
2022/02/16 01:52:35;;;;;;;3.80;0.97;;;;;;;;;;5032860;28;20981;-87
2022/02/16 01:55:04;;;;;;;3.80;0.70;;;;;;;;;;5035918;28;20491;-89
2022/02/16 01:57:34;;;;;;;3.47;1.10;;;;;;;;;;5036410;28;20458;-89
2022/02/16 02:00:01;;;;;;;0.93;0.60;;;;;;;;;;5036411;28;20951;-88
2022/02/16 02:02:29;;;;;;;0.60;0.47;;;4.30;99.90;;;;;;5036048;28;20456;-87
2022/02/16 02:04:56;;;;;;;0.60;0.50;;;;;;;;;;5034586;28;20456;-86
2022/02/16 02:07:24;;;;;;;1.00;0.40;;;;;;;;;;5035875;28;20927;-88
2022/02/16 02:09:51;;;;;;;0.40;0.30;;;;;;;;;;5035711;28;20486;-88
2022/02/16 02:12:18;;;;;;;1.33;0.57;;;;;;;;;;5035814;28;20454;-88
2022/02/16 02:14:51;;;;;;;2.37;0.93;;;4.20;99.90;;;;;;5035883;28;20499;-87
2022/02/16 02:17:18;;;;;;;1.33;0.53;;;;;;;;;;5035615;28;20455;-88
2022/02/16 02:19:46;;;;;;;4.60;1.30;;;4.30;99.90;;;;;;5035736;28;20459;-88
2022/02/16 02:22:14;;;;;;;0.40;0.30;;;4.30;99.90;;;;;;5034869;28;20473;-90
2022/02/16 02:24:41;;;;;;;0.80;0.53;;;;;;;;;;5035631;28;20451;-88
2022/02/16 02:27:09;;;;;;;2.30;1.03;;;;;;;;;;5035040;28;20581;-87
2022/02/16 02:29:39;;;;;;;0.40;0.33;;;;;;;;;;5035484;28;20450;-89
2022/02/16 02:32:06;;;;;;;2.50;0.93;;;4.30;99.90;;;;;;5035098;28;20466;-88
2022/02/16 02:34:33;;;;;;;0.57;0.50;;;;;;;;;;5035516;28;20454;-88
2022/02/16 02:37:00;;;;;;;1.53;0.50;;;;;;;;;;5034188;28;20455;-87
2022/02/16 02:39:28;;;;;;;0.50;0.40;;;4.50;99.90;;;;;;5035294;28;20462;-87
2022/02/16 02:41:55;;;;;;;0.60;0.50;;;;;;;;;;5035395;28;20822;-87
2022/02/16 02:44:22;;;;;;;2.00;0.63;;;;;;;;;;5035284;28;20450;-87
2022/02/16 02:46:49;;;;;;;0.60;0.53;;;;;;;;;;5034779;28;20836;-88
2022/02/16 02:49:17;;;;;;;2.30;0.70;;;;;;;;;;5034759;28;20455;-89
2022/02/16 02:51:44;;;;;;;0.90;0.50;;;;;;;;;;5033549;28;20861;-89
2022/02/16 02:54:11;;;;;;;1.30;1.00;;;;;;;;;;5034900;28;20991;-87
2022/02/16 02:56:39;;;;;;;3.70;0.90;;;4.60;99.90;;;;;;5034817;28;20464;-88
2022/02/16 02:59:07;;;;;;;0.77;0.37;;;;;;;;;;5034972;28;20810;-87
2022/02/16 03:01:34;;;;;;;1.80;0.50;;;;;;;;;;5034693;28;20538;-87
2022/02/16 03:04:01;;;;;;;2.50;0.70;;;;;;;;;;5033713;28;20870;-87
2022/02/16 03:06:28;;;;;;;10.90;0.70;;;;;;;;;;5033575;28;20978;-89
2022/02/16 03:08:55;;;;;;;1.50;0.43;;;;;;;;;;5035270;28;20443;-88
2022/02/16 03:11:23;;;;;;;1.67;0.80;;;;;;;;;;5034299;28;20496;-88
2022/02/16 03:13:51;;;;;;;0.93;0.50;;;4.50;99.90;;;;;;5034312;28;20462;-89
2022/02/16 03:16:18;;;;;;;0.70;0.57;;;;;;;;;;5034468;28;20454;-88
2022/02/16 03:18:45;;;;;;;2.53;0.67;;;;;;;;;;5034742;28;20457;-90
2022/02/16 03:21:13;;;;;;;0.80;0.50;;;;;;;;;;5033702;28;20448;-88
2022/02/16 03:23:40;;;;;;;1.23;0.53;;;;;;;;;;5034474;28;20588;-88
2022/02/16 03:26:07;;;;;;;2.60;0.47;;;;;;;;;;5034423;28;20459;-87
2022/02/16 03:28:34;;;;;;;0.50;0.40;;;4.30;99.90;;;;;;5033877;28;20943;-89
2022/02/16 03:31:02;;;;;;;1.70;0.77;;;4.40;99.90;;;;;;5032729;28;20497;-89
2022/02/16 03:33:29;;;;;;;0.70;0.60;;;;;;;;;;5033938;28;20458;-88
2022/02/16 03:35:56;;;;;;;1.83;0.73;;;;;;;;;;5032938;28;20466;-86
2022/02/16 03:38:24;;;;;;;0.40;0.30;;;;;;;;;;5033648;28;20454;-86
2022/02/16 03:40:52;;;;;;;1.43;0.57;;;;;;;;;;5033941;28;20454;-88
2022/02/16 03:43:20;;;;;;;1.37;0.90;;;;;;;;;;5033975;28;20454;-87
2022/02/16 03:45:47;;;;;;;0.93;0.40;;;;;;;;;;5033920;28;20446;-88
2022/02/16 03:48:15;;;;;;;1.47;0.80;;;4.50;99.90;;;;;;5033826;28;20454;-86
2022/02/16 03:50:42;;;;;;;0.40;0.20;;;;;;;;;;5032621;28;20485;-89
2022/02/16 03:53:09;;;;;;;5.80;0.87;;;;;;;;;;5034447;28;20977;-89
2022/02/16 03:55:36;;;;;;;1.27;0.70;;;;;;;;;;5033592;28;20471;-89
2022/02/16 03:58:03;;;;;;;2.03;0.37;;;;;;;;;;5031617;28;20459;-88
2022/02/16 04:00:31;;;;;;;3.60;0.93;;;;;;;;;;5033590;28;20439;-87
2022/02/16 04:02:58;;;;;;;3.47;0.40;;;;;;;;;;5033609;28;20448;-87
2022/02/16 04:05:26;;;;;;;0.30;0.20;;;4.80;99.90;;;;;;5032794;28;20451;-87
2022/02/16 04:07:53;;;;;;;1.37;0.50;;;;;;;;;;5033840;28;20455;-87
2022/02/16 04:10:20;;;;;;;1.60;0.33;;;;;;;;;;5033531;28;20480;-88
2022/02/16 04:12:47;;;;;;;0.53;0.30;;;;;;;;;;5033514;28;20505;-90
2022/02/16 04:15:15;;;;;;;1.10;0.50;;;;;;;;;;5033128;28;20462;-90
2022/02/16 04:17:43;;;;;;;0.60;0.50;;;;;;;;;;5033461;28;20455;-88
2022/02/16 04:20:10;;;;;;;0.40;0.30;;;4.90;99.90;;;;;;5032530;28;20462;-89
2022/02/16 04:22:42;;;;;;;0.93;0.60;;;4.90;99.90;;;;;;5033299;28;20455;-87
2022/02/16 04:25:09;;;;;;;2.73;0.77;;;;;;;;;;5033273;28;20946;-87
2022/02/16 04:27:36;;;;;;;0.57;0.33;;;;;;;;;;5033165;28;20501;-90
2022/02/16 04:30:04;;;;;;;0.40;0.40;;;4.70;99.90;;;;;;5033236;28;20456;-88
2022/02/16 04:32:31;;;;;;;0.60;0.47;;;;;;;;;;5033666;28;20444;-86
2022/02/16 04:34:58;;;;;;;0.50;0.30;;;;;;;;;;5032049;28;20459;-87
2022/02/16 04:37:25;;;;;;;2.10;0.40;;;;;;;;;;5033053;28;20467;-88
2022/02/16 04:39:54;;;;;;;0.53;0.40;;;5.00;99.90;;;;;;5033253;28;20825;-87
2022/02/16 04:42:22;;;;;;;0.50;0.40;;;;;;;;;;5033202;28;20451;-89
2022/02/16 04:44:49;;;;;;;1.07;0.50;;;;;;;;;;5033123;28;20793;-88
2022/02/16 04:47:16;;;;;;;0.40;0.40;;;;;;;;;;5033502;28;20447;-90
2022/02/16 04:49:43;;;;;;;0.40;0.33;;;;;;;;;;5032805;28;20453;-90
2022/02/16 04:52:10;;;;;;;0.50;0.33;;;;;;;;;;5032183;28;20495;-88
2022/02/16 04:54:39;;;;;;;0.40;0.40;;;;;;;;;;5033057;28;20491;-89
2022/02/16 04:57:07;;;;;;;0.77;0.40;;;5.00;99.90;;;;;;5033071;28;20491;-89
2022/02/16 04:59:35;;;;;;;0.43;0.33;;;;;;;;;;5032904;28;20458;-87
2022/02/16 05:02:02;;;;;;;0.70;0.40;;;;;;;;;;5033075;28;20474;-89
2022/02/16 05:04:29;;;;;;;1.43;0.83;;;;;;;;;;5033052;28;20439;-89
2022/02/16 05:06:56;;;;;;;0.50;0.30;;;;;;;;;;5031548;28;20947;-88
2022/02/16 05:09:23;;;;;;;0.50;0.40;;;;;;;;;;5032904;28;20451;-88
2022/02/16 05:11:50;;;;;;;1.07;0.73;;;;;;;;;;5032966;28;20502;-88
2022/02/16 05:14:19;;;;;;;0.50;0.40;;;;;;;;;;5033134;28;20455;-92
2022/02/16 05:16:46;;;;;;;0.40;0.40;;;;;;;;;;5033122;28;20950;-90
2022/02/16 05:19:14;;;;;;;0.53;0.40;;;;;;;;;;5033059;28;20463;-90
2022/02/16 05:21:41;;;;;;;0.93;0.40;;;;;;;;;;5031850;28;20450;-88
2022/02/16 05:24:10;;;;;;;0.50;0.30;;;;;;;;;;5032758;28;20444;-89
2022/02/16 05:26:38;;;;;;;0.40;0.30;;;4.90;99.90;;;;;;5032927;28;20454;-87
2022/02/16 05:29:06;;;;;;;0.50;0.30;;;;;;;;;;5036022;28;20463;-86
2022/02/16 05:31:34;;;;;;;0.87;0.30;;;;;;;;;;5036640;28;20501;-88
2022/02/16 05:34:01;;;;;;;0.40;0.30;;;;;;;;;;5036975;28;20467;-92
2022/02/16 05:36:28;;;;;;;2.27;0.83;;;;;;;;;;5036230;28;20775;-89
2022/02/16 05:38:55;;;;;;;0.40;0.30;;;;;;;;;;5036725;28;20455;-89
2022/02/16 05:41:23;;;;;;;2.50;0.53;;;;;;;;;;5036388;28;20458;-88
2022/02/16 05:43:50;;;;;;;1.60;0.73;;;;;;;;;;5036495;28;20943;-89
2022/02/16 05:46:17;;;;;;;0.53;0.53;;;;;;;;;;5036456;28;20461;-94
2022/02/16 05:48:45;;;;;;;0.60;0.40;;;5.00;99.90;;;;;;5036203;28;20447;-90
2022/02/16 05:51:12;;;;;;;0.40;0.33;;;;;;;;;;5035486;28;20522;-92
2022/02/16 05:53:40;;;;;;;1.90;0.50;;;;;;;;;;5034517;28;20491;-89
2022/02/16 05:56:07;;;;;;;0.90;0.60;;;;;;;;;;5036179;28;20447;-89
2022/02/16 05:58:34;;;;;;;1.33;0.40;;;;;;;;;;5035976;28;20956;-89
2022/02/16 06:01:01;;;;;;;0.60;0.30;;;;;;;;;;5036242;28;20455;-88
2022/02/16 06:03:28;;;;;;;1.73;0.80;;;;;;;;;;5036189;28;20452;-88
2022/02/16 06:05:57;;;;;;;3.73;2.03;;;4.70;99.90;;;;;;5035712;28;20451;-90
2022/02/16 06:08:24;;;;;;;1.20;1.03;;;;;;;;;;5036264;28;20511;-89
2022/02/16 06:10:52;;;;;;;0.67;0.60;;;;;;;;;;5036152;28;20450;-90
2022/02/16 06:13:19;;;;;;;0.67;0.47;;;;;;;;;;5036228;28;20459;-90
2022/02/16 06:15:47;;;;;;;1.40;1.03;;;;;;;;;;5033880;28;20470;-90
2022/02/16 06:18:14;;;;;;;0.70;0.60;;;;;;;;;;5033331;28;20943;-91
2022/02/16 06:20:41;;;;;;;0.93;0.60;;;;;;;;;;5034998;28;20458;-89
2022/02/16 06:23:09;;;;;;;4.13;1.30;;;5.10;99.90;;;;;;5036516;28;20444;-90
2022/02/16 06:25:36;;;;;;;1.53;0.70;;;;;;;;;;5035989;28;20432;-88
2022/02/16 06:28:03;;;;;;;0.60;0.50;;;5.70;99.90;;;;;;5035529;28;20981;-88
2022/02/16 06:30:31;;;;;;;0.60;0.40;;;;;;;;;;5036160;28;20444;-88
2022/02/16 06:32:59;;;;;;;0.97;0.50;;;5.10;99.90;;;;;;5035289;28;20561;-87
2022/02/16 06:35:26;;;;;;;2.47;0.90;;;;;;;;;;5034133;28;20548;-92
2022/02/16 06:37:54;;;;;;;0.50;0.47;;;;;;;;;;5032869;28;20526;-89
2022/02/16 06:40:22;;;;;;;1.30;0.57;;;5.10;99.90;;;;;;5035276;28;20460;-89
2022/02/16 06:42:49;;;;;;;0.90;0.40;;;;;;;;;;5035938;28;20463;-90
2022/02/16 06:45:16;;;;;;;0.60;0.43;;;;;;;;;;5035836;28;20452;-87
2022/02/16 06:47:43;;;;;;;0.40;0.30;;;;;;;;;;5034727;28;20461;-88
2022/02/16 06:50:10;;;;;;;1.73;0.97;;;;;;;;;;5034160;28;20456;-89
2022/02/16 06:52:38;;;;;;;0.83;0.70;;;;;;;;;;5034883;28;20914;-89
2022/02/16 06:55:05;;;;;;;1.00;0.40;;;5.30;99.90;;;;;;5034895;28;20494;-88
2022/02/16 06:57:34;;;;;;;0.40;0.30;;;5.20;99.90;;;;;;5035289;28;20450;-90
2022/02/16 07:00:01;;;;;;;2.43;0.93;;;;;;;;;;5036650;28;20467;-89
2022/02/16 07:02:28;;;;;;;2.80;1.43;;;;;;;;;;5035257;28;20440;-89
2022/02/16 07:04:56;;;;;;;15.27;9.50;;;;;;;;;;5034072;28;20456;-92
2022/02/16 07:07:23;;;;;;;2.90;2.10;;;;;;;;;;5035433;28;20449;-88
2022/02/16 07:09:50;;;;;;;4.10;1.13;;;;;;;;;;5034978;28;20454;-91
2022/02/16 07:12:17;;;;;;;3.90;1.77;;;;;;;;;;5035189;28;20498;-86
2022/02/16 07:14:47;;;;;;;1.83;1.47;;;5.20;99.90;;;;;;5034957;28;20451;-89
2022/02/16 07:17:15;;;;;;;4.83;1.70;;;;;;;;;;5034901;28;20470;-93
2022/02/16 07:19:42;;;;;;;3.43;2.27;;;;;;;;;;5034887;28;20459;-88
2022/02/16 07:22:09;;;;;;;5.63;2.10;;;;;;;;;;5033322;28;20516;-86
2022/02/16 07:24:36;;;;;;;17.83;7.13;;;;;;;;;;5030528;28;20452;-89
2022/02/16 07:27:04;;;;;;;6.63;3.33;;;5.30;99.90;;;;;;5034444;28;20463;-90
2022/02/16 07:29:32;;;;;;;4.30;2.43;;;;;;;;;;5034747;28;20466;-89
2022/02/16 07:32:00;;;;;;;6.57;3.40;;;5.20;99.90;;;;;;5034543;28;20499;-85
2022/02/16 07:34:30;;;;;;;19.97;10.70;;;;;;;;;;5034424;28;20451;-88
2022/02/16 07:37:00;;;;;;;12.40;6.60;;;;;;;;;;5032923;28;20455;-88
2022/02/16 07:39:27;;;;;;;8.60;5.20;;;;;;;;;;5033687;28;20448;-88
2022/02/16 07:41:55;;;;;;;8.37;3.57;;;;;;;;;;5034034;28;20800;-90
2022/02/16 07:44:22;;;;;;;7.53;4.30;;;;;;;;;;5034265;28;20509;-88
2022/02/16 07:46:49;;;;;;;1.17;0.93;;;;;;;;;;5034558;28;20447;-89
2022/02/16 07:49:17;;;;;;;5.63;3.37;;;5.30;99.90;;;;;;5033641;28;20519;-92
2022/02/16 07:51:44;;;;;;;1.77;1.33;;;;;;;;;;5030804;28;20511;-89
2022/02/16 07:54:11;;;;;;;3.13;1.57;;;;;;;;;;5034193;28;20915;-88
2022/02/16 07:56:38;;;;;;;1.57;1.13;;;;;;;;;;5034818;28;21018;-91
2022/02/16 07:59:06;;;;;;;0.90;0.77;;;;;;;;;;5034331;28;20455;-88
2022/02/16 08:01:33;;;;;;;1.27;0.90;;;;;;;;;;5033806;28;20452;-89
2022/02/16 08:06:42;;;;;;;1.30;0.47;;;5.30;99.90;;;;;;5032238;28;20497;-88
2022/02/16 08:09:10;;;;;;;0.90;0.30;;;;;;;;;;5033711;28;20452;-89
2022/02/16 08:11:44;;;;;;;0.60;0.50;;;5.40;99.90;;;;;;5033758;28;20563;-92
2022/02/16 08:14:13;;;;;;;0.50;0.30;;;5.40;99.90;;;;;;5033927;28;20451;-90
2022/02/16 08:16:40;;;;;;;0.70;0.50;;;;;;;;;;5032571;28;20444;-89
2022/02/16 08:19:09;;;;;;;0.57;0.50;;;5.50;99.90;;;;;;5033772;28;20444;-92
2022/02/16 08:21:36;;;;;;;0.60;0.40;;;;;;;;;;5033474;28;20448;-92
2022/02/16 08:24:06;;;;;;;0.43;0.30;;;5.50;99.90;;;;;;5034674;28;20463;-90
2022/02/16 08:26:33;;;;;;;0.40;0.20;;;;;;;;;;5034271;28;20439;-92
2022/02/16 08:29:00;;;;;;;0.60;0.50;;;;;;;;;;5034362;28;20459;-92
2022/02/16 08:31:29;;;;;;;0.67;0.40;;;;;;;;;;5033504;28;20435;-94
2022/02/16 08:33:56;;;;;;;0.40;0.30;;;;;;;;;;5034751;28;20970;-93
2022/02/16 08:36:23;;;;;;;0.97;0.57;;;;;;;;;;5032736;28;20990;-90
2022/02/16 08:38:50;;;;;;;0.53;0.40;;;;;;;;;;5032963;28;20436;-90
2022/02/16 08:41:19;;;;;;;0.37;0.20;;;5.50;99.90;;;;;;5033333;28;20452;-90
2022/02/16 08:43:46;;;;;;;0.30;0.20;;;;;;;;;;5033366;28;20456;-91
2022/02/16 08:46:14;;;;;;;0.40;0.30;;;;;;;;;;5033397;28;21014;-88
2022/02/16 08:48:41;;;;;;;0.70;0.40;;;;;;;;;;5033378;28;20514;-90
2022/02/16 08:51:08;;;;;;;0.50;0.33;;;;;;;;;;5032454;28;20932;-89
2022/02/16 08:53:35;;;;;;;0.97;0.60;;;5.40;99.90;;;;;;5033039;28;20510;-91
2022/02/16 08:56:02;;;;;;;0.60;0.40;;;;;;;;;;5036249;28;20877;-90
2022/02/16 08:58:31;;;;;;;0.90;0.60;;;5.50;99.90;;;;;;5037253;28;20456;-91
2022/02/16 09:00:58;;;;;;;0.60;0.50;;;;;;;;;;5036957;28;20455;-89
2022/02/16 09:03:27;;;;;;;0.50;0.30;;;;;;;;;;5042185;28;20470;-92
2022/02/16 09:05:54;;;;;;;1.23;0.40;;;;;;;;;;5038166;28;21015;-92
2022/02/16 09:08:21;;;;;;;0.80;0.57;;;;;;;;;;5040078;28;20450;-91
2022/02/16 09:10:49;;;;;;;0.50;0.50;;;;;;;;;;5042776;28;20451;-91
2022/02/16 09:13:16;;;;;;;1.00;0.60;;;;;;;;;;5039163;28;20471;-89
2022/02/16 09:15:44;;;;;;;0.83;0.60;;;5.30;99.90;;;;;;5039061;28;20462;-89
2022/02/16 09:18:11;;;;;;;0.83;0.70;;;;;;;;;;5038524;28;20458;-91
2022/02/16 09:20:38;;;;;;;0.63;0.50;;;;;;;;;;5037529;28;20958;-87
2022/02/16 09:23:05;;;;;;;0.70;0.50;;;;;;;;;;5039154;28;20439;-88
2022/02/16 09:25:33;;;;;;;0.40;0.30;;;;;;;;;;5036560;28;20443;-85
2022/02/16 09:28:00;;;;;;;1.27;0.47;;;;;;;;;;5036570;28;20443;-90
2022/02/16 09:30:27;;;;;;;0.30;0.20;;;;;;;;;;5037407;28;20458;-90
2022/02/16 09:32:55;;;;;;;0.50;0.37;;;5.60;99.90;;;;;;5036477;28;20491;-87
2022/02/16 09:35:22;;;;;;;0.40;0.30;;;;;;;;;;5035468;28;20455;-86
2022/02/16 09:37:49;;;;;;;0.40;0.30;;;;;;;;;;5036301;28;20440;-90
2022/02/16 09:40:17;;;;;;;0.97;0.43;;;;;;;;;;5036284;28;20467;-87
2022/02/16 09:42:45;;;;;;;0.47;0.40;;;;;;;;;;5036342;28;20452;-87
2022/02/16 09:45:14;;;;;;;0.70;0.60;;;5.90;99.90;;;;;;5036199;28;20479;-88
2022/02/16 09:47:42;;;;;;;6.23;3.10;;;6.00;99.90;;;;;;5036180;28;20448;-88
2022/02/16 09:50:15;;;;;;;2.40;1.63;;;5.90;99.90;;;;;;5029711;28;20498;-86
2022/02/16 09:52:42;;;;;;;0.90;0.73;;;;;;;;;;5035669;28;20994;-89
2022/02/16 09:55:10;;;;;;;0.60;0.40;;;6.10;99.90;;;;;;5031979;28;20567;-91
2022/02/16 09:57:37;;;;;;;1.57;0.67;;;;;;;;;;5016291;28;20452;-89
2022/02/16 10:00:07;;;;;;;0.60;0.40;;;6.20;99.90;;;;;;5034558;28;20460;-89
2022/02/16 10:02:37;;;;;;;1.07;0.80;;;6.10;99.90;;;;;;5036107;28;20462;-89
2022/02/16 10:05:06;;;;;;;2.60;0.50;;;6.30;99.90;;;;;;5034686;28;20444;-85
2022/02/16 10:07:36;;;;;;;1.50;0.87;;;6.40;99.90;;;;;;5035828;28;20448;-86
2022/02/16 10:10:15;;;;;;;2.53;0.40;;;6.20;99.90;;;;;;5035259;28;20462;-85
2022/02/16 10:12:44;;;;;;;0.40;0.40;;;6.60;99.90;;;;;;5035673;28;20502;-88
2022/02/16 10:15:16;;;;;;;0.53;0.30;;;6.10;99.90;;;;;;5023643;28;20936;-88
2022/02/16 10:17:43;;;;;;;1.23;0.30;;;;;;;;;;5015883;28;20502;-88
2022/02/16 10:20:12;;;;;;;0.70;0.47;;;6.30;99.90;;;;;;5015470;28;20444;-88
2022/02/16 10:22:43;;;;;;;0.40;0.30;;;6.60;99.90;;;;;;5015816;28;20491;-87
2022/02/16 10:25:14;;;;;;;0.40;0.40;;;6.60;99.90;;;;;;5016651;28;20848;-87
2022/02/16 10:27:42;;;;;;;0.57;0.40;;;;;;;;;;5015606;28;20455;-86
2022/02/16 10:30:14;;;;;;;0.60;0.30;;;6.70;99.90;;;;;;4997604;28;20456;-89
2022/02/16 10:32:42;;;;;;;0.80;0.40;;;6.80;99.90;;;;;;5015705;28;20897;-89
2022/02/16 10:35:09;;;;;;;0.50;0.40;;;;;;;;;;5015223;28;20464;-88
2022/02/16 10:37:41;;;;;;;0.40;0.20;;;6.80;99.90;;;;;;5023236;28;20450;-89
2022/02/16 10:40:14;;;;;;;0.70;0.30;;;7.30;99.90;;;;;;5036904;28;20830;-88
2022/02/16 10:42:53;;;;;;;0.80;0.30;;;7.00;99.90;;;;;;5036529;28;20447;-88
2022/02/16 10:45:22;;;;;;;0.50;0.30;;;7.10;99.90;;;;;;5035271;28;20498;-86
2022/02/16 10:48:08;;;;;;;0.60;0.30;;;7.20;99.90;;;;;;5037884;28;20456;-87
2022/02/16 10:50:39;;;;;;;0.40;0.30;;;7.30;99.90;;;;;;5012975;28;20454;-87
2022/02/16 10:53:09;;;;;;;1.33;0.50;;;7.40;99.90;;;;;;5009729;28;20562;-87
2022/02/16 10:55:41;;;;;;;0.40;0.30;;;7.50;99.90;;;;;;5014366;28;20445;-85
2022/02/16 10:58:10;;;;;;;0.70;0.40;;;7.70;99.90;;;;;;5008033;28;20456;-87
2022/02/16 11:00:40;;;;;;;0.60;0.40;;;8.10;99.90;;;;;;5013172;28;20453;-88
2022/02/16 11:03:09;;;;;;;0.30;0.20;;;8.20;99.90;;;;;;5011436;28;20448;-88
2022/02/16 11:05:42;;;;;;;0.40;0.30;;;8.40;99.90;;;;;;5013100;28;20449;-91
2022/02/16 11:08:13;;;;;;;0.40;0.30;;;8.70;99.90;;;;;;5020274;28;20448;-92
2022/02/16 11:10:42;;;;;;;0.43;0.30;;;8.80;99.90;;;;;;5036510;28;20485;-88
2022/02/16 11:13:11;;;;;;;0.50;0.30;;;8.50;99.90;;;;;;5037571;28;20495;-92
2022/02/16 11:15:38;;;;;;;0.80;0.40;;;;;;;;;;5030615;28;20452;-91
2022/02/16 11:18:13;;;;;;;1.03;0.77;;;8.70;99.90;;;;;;5017739;28;20464;-87
2022/02/16 11:20:40;;;;;;;0.50;0.40;;;;;;;;;;5016212;28;20460;-88
2022/02/16 11:23:08;;;;;;;0.90;0.50;;;;;;;;;;5016216;28;20455;-87
2022/02/16 11:25:37;;;;;;;0.70;0.40;;;8.90;99.90;;;;;;5014539;28;21002;-85
2022/02/16 11:28:11;;;;;;;0.40;0.30;;;8.90;99.90;;;;;;5014929;28;20539;-89
2022/02/16 11:30:41;;;;;;;0.40;0.30;;;8.80;99.90;;;;;;5016437;28;20452;-92
2022/02/16 11:33:16;;;;;;;0.40;0.30;;;8.80;99.90;;;;;;5018871;28;20526;-93
2022/02/16 11:35:49;;;;;;;0.70;0.40;;;9.20;99.90;;;;;;5016436;28;20443;-91
2022/02/16 11:38:17;;;;;;;0.40;0.27;;;9.20;99.90;;;;;;5016480;28;20445;-90
2022/02/16 11:40:47;;;;;;;0.40;0.30;;;9.40;99.90;;;;;;5022991;28;20453;-87
2022/02/16 11:43:16;;;;;;;0.50;0.30;;;9.40;99.90;;;;;;5020356;28;20453;-87
2022/02/16 11:45:57;;;;;;;0.50;0.40;;;9.40;99.90;;;;;;5019705;28;20437;-87
2022/02/16 11:48:43;;;;;;;1.10;0.37;;;8.70;99.90;;;;;;5017953;28;20555;-89
2022/02/16 11:51:36;;;;;;;0.47;0.40;;;9.10;99.90;;;;;;5055553;28;20976;-92
2022/02/16 11:54:55;;;;;;;0.30;0.20;;;9.40;99.90;;;;;;5055203;28;20941;-94
2022/02/16 11:57:54;;;;;;;0.67;0.30;;;8.70;99.90;;;;;;5035277;28;20861;-88
2022/02/16 12:00:30;;;;;;;0.50;0.30;;;9.30;99.90;;;;;;5036145;28;20451;-93
2022/02/16 12:03:17;;;;;;;0.30;0.20;;;9.00;99.90;;;;;;5033426;22;20480;-91
2022/02/16 12:05:49;;;;;;;0.67;0.30;;;9.00;99.90;;;;;;5015790;28;21030;-92
2022/02/16 12:08:18;;;;;;;0.73;0.50;;;9.00;99.90;;;;;;5014902;28;20469;-90
2022/02/16 12:10:46;;;;;;;0.60;0.40;;;9.00;99.90;;;;;;5015081;28;20456;-92
2022/02/16 12:13:15;;;;;;;0.60;0.30;;;;;;;;;;5013829;28;20484;-89
2022/02/16 12:15:42;;;;;;;0.50;0.30;;;9.10;99.90;;;;;;5016427;28;20464;-90
2022/02/16 12:18:13;;;;;;;0.50;0.33;;;9.10;99.90;;;;;;5017215;28;20452;-93
2022/02/16 12:20:41;;;;;;;5.13;2.73;;;9.00;99.90;;;;;;5012030;28;20514;-91
2022/02/16 12:23:08;;;;;;;7.40;4.00;;;;;;;;;;5010665;28;20441;-95
2022/02/16 12:25:35;;;;;;;1.40;0.50;;;;;;;;;;5014333;28;20459;-90
2022/02/16 12:28:04;;;;;;;1.47;0.57;;;8.90;99.90;;;;;;5014071;28;20912;-93
2022/02/16 12:30:37;;;;;;;11.90;6.00;;;9.20;99.90;;;;;;5015012;28;20441;-92
2022/02/16 12:33:19;;;;;;;5.97;2.30;;;8.80;99.90;;;;;;5016357;28;20484;-91
2022/02/16 12:35:46;;;;;;;7.70;3.10;;;;;;;;;;5015997;28;20448;-91
2022/02/16 12:38:22;;;;;;;7.40;3.10;;;8.80;99.90;;;;;;5015931;28;20455;-91
2022/02/16 12:40:49;;;;;;;19.27;10.00;;;;;;;;;;5009927;28;20463;-91
2022/02/16 12:43:16;;;;;;;10.23;4.40;;;;;;;;;;5015771;28;20455;-93
2022/02/16 12:45:46;;;;;;;19.83;7.70;;;8.70;99.90;;;;;;5016272;28;20452;-90
2022/02/16 12:48:13;;;;;;;24.43;11.70;;;;;;;;;;5011486;28;20461;-90
2022/02/16 12:50:41;;;;;;;6.60;3.20;;;;;;;;;;5015960;28;20436;-88
2022/02/16 12:53:09;;;;;;;8.03;3.97;;;;;;;;;;5014241;28;20984;-89
2022/02/16 12:55:41;;;;;;;0.40;0.30;;;8.80;99.90;;;;;;5014615;28;20456;-91
2022/02/16 12:58:08;;;;;;;4.73;1.93;;;;;;;;;;5015911;28;20444;-88
2022/02/16 13:00:47;;;;;;;0.50;0.40;;;;;;;;;;5014224;28;20519;-91
2022/02/16 13:03:17;;;;;;;1.63;1.53;;;9.00;99.90;;;;;;5015039;28;20495;-89
2022/02/16 13:05:47;;;;;;;2.30;1.20;;;9.00;99.90;;;;;;5013249;28;20453;-91
2022/02/16 13:08:15;;;;;;;1.33;0.50;;;9.00;99.90;;;;;;5015116;28;20477;-92
2022/02/16 13:10:44;;;;;;;5.30;3.30;;;9.00;99.90;;;;;;5014810;28;20448;-91
2022/02/16 13:13:19;;;;;;;0.90;0.60;;;9.30;99.90;;;;;;5016153;28;20483;-92
2022/02/16 13:15:47;;;;;;;10.30;6.27;;;;;;;;;;5012877;28;20459;-87
2022/02/16 13:18:30;;;;;;;3.03;2.73;;;9.50;99.90;;;;;;5013018;28;20859;-87
2022/02/16 13:21:07;;;;;;;0.70;0.43;;;9.30;99.90;;;;;;5013983;28;20456;-89
2022/02/16 13:23:35;;;;;;;1.23;1.13;;;;;;;;;;5015647;28;20448;-90
2022/02/16 13:26:07;;;;;;;0.43;0.40;;;9.60;99.90;;;;;;5015838;28;20452;-90
2022/02/16 13:28:40;;;;;;;0.40;0.30;;;9.70;99.90;;;;;;5016107;28;20460;-90
2022/02/16 13:31:15;;;;;;;0.50;0.30;;;9.70;99.90;;;;;;5013710;28;20456;-87
2022/02/16 13:33:55;;;;;;;0.70;0.37;;;9.70;99.90;;;;;;5014682;28;20491;-91
2022/02/16 13:36:26;;;;;;;0.40;0.30;;;;;;;;;;5014567;28;20451;-93
2022/02/16 13:39:08;;;;;;;0.40;0.30;;;9.70;99.90;;;;;;5017356;28;20440;-92
2022/02/16 13:41:36;;;;;;;0.50;0.33;;;;;;;;;;5016206;28;20440;-90
2022/02/16 13:44:04;;;;;;;0.40;0.30;;;9.60;99.90;;;;;;5014130;28;20935;-92
2022/02/16 13:46:49;;;;;;;0.30;0.20;;;9.60;99.90;;;;;;5012889;28;20452;-87
2022/02/16 13:49:18;;;;;;;0.40;0.20;;;9.90;99.90;;;;;;5014523;28;20832;-87
2022/02/16 13:51:53;;;;;;;0.30;0.20;;;9.50;99.90;;;;;;5015754;28;20456;-89
2022/02/16 13:54:23;;;;;;;1.70;0.37;;;10.00;99.90;;;;;;5016551;28;20502;-89
2022/02/16 13:56:52;;;;;;;0.40;0.30;;;9.60;99.90;;;;;;5017234;28;20944;-87
2022/02/16 13:59:19;;;;;;;0.40;0.30;;;;;;;;;;5016850;28;20444;-89
2022/02/16 14:02:04;;;;;;;0.40;0.30;;;9.90;99.90;;;;;;5016831;28;20448;-88
2022/02/16 14:04:33;;;;;;;0.70;0.30;;;9.60;99.90;;;;;;5017643;28;20448;-88
2022/02/16 14:07:01;;;;;;;0.50;0.30;;;;;;;;;;5016324;28;20559;-90
2022/02/16 14:09:28;;;;;;;1.33;0.20;;;;;;;;;;5017900;28;20453;-90
2022/02/16 14:11:55;;;;;;;0.40;0.20;;;;;;;;;;5017564;28;20900;-88